Time;durP1;ratioP1;P1;durP2;ratioP2;P2;SDS_P1;SDS_P2;PMS_P1;PMS_P2;Temp;Humidity;BMP_temperature;BMP_pressure;BME280_temperature;BME280_humidity;BME280_pressure;Samples;Min_cycle;Max_cycle;Signal;HPM_P1;HPM_P2
2021/11/15 00:00:43;;;;;;;61.70;42.27;;;;;;;3.86;78.81;101436.52;1779250;80;20996;-65
2021/11/15 00:03:12;;;;;;;64.27;42.88;;;;;;;3.89;78.82;101436.85;1782133;79;21855;-66
2021/11/15 00:05:38;;;;;;;65.47;42.50;;;;;;;3.92;78.82;101438.05;1788575;79;21020;-64
2021/11/15 00:08:05;;;;;;;67.53;42.70;;;;;;;3.95;78.80;101444.46;1799655;79;20937;-64
2021/11/15 00:10:32;;;;;;;64.12;41.83;;;;;;;3.97;78.79;101439.60;1810932;78;21403;-64
2021/11/15 00:13:00;;;;;;;62.85;41.92;;;;;;;3.98;78.78;101432.61;1784998;79;21031;-64
2021/11/15 00:15:32;;;;;;;64.07;43.85;;;;;;;3.99;78.75;101429.94;1760148;80;20921;-64
2021/11/15 00:18:01;;;;;;;62.93;43.55;;;;;;;4.01;78.76;101422.89;1752223;81;21448;-65
2021/11/15 00:20:27;;;;;;;66.05;43.42;;;;;;;4.01;78.71;101418.97;1733109;81;20968;-65
2021/11/15 00:22:54;;;;;;;67.72;43.48;;;;;;;4.01;78.67;101416.35;1729977;83;20981;-65
2021/11/15 00:25:21;;;;;;;69.67;43.80;;;;;;;4.02;78.66;101412.83;1752491;81;21035;-65
2021/11/15 00:27:47;;;;;;;64.30;44.13;;;;;;;4.03;78.63;101411.92;1758598;81;21817;-65
2021/11/15 00:30:14;;;;;;;66.40;45.50;;;;;;;4.05;78.66;101412.31;1788183;80;20952;-65
2021/11/15 00:32:41;;;;;;;71.35;45.95;;;;;;;4.08;78.68;101412.22;1791108;80;21515;-65
2021/11/15 00:35:08;;;;;;;69.85;46.33;;;;;;;4.10;78.66;101411.70;1763784;80;21066;-65
2021/11/15 00:37:35;;;;;;;77.60;48.05;;;;;;;4.11;78.64;101410.80;1758599;81;20967;-65
2021/11/15 00:40:05;;;;;;;85.10;54.85;;;;;;;4.12;78.65;101408.58;1758508;81;21763;-65
2021/11/15 00:42:31;;;;;;;82.70;53.02;;;;;;;4.14;78.68;101404.99;1756321;81;20986;-65
2021/11/15 00:44:59;;;;;;;83.87;57.17;;;;;;;4.15;78.65;101410.65;1764665;79;21023;-65
2021/11/15 00:47:25;;;;;;;69.55;46.37;;;;;;;4.16;78.66;101412.81;1767842;79;22038;-65
2021/11/15 00:49:52;;;;;;;67.70;45.35;;;;;;;4.17;78.68;101414.05;1741973;81;21064;-66
2021/11/15 00:52:18;;;;;;;68.62;45.58;;;;;;;4.20;78.67;101424.84;1765674;81;21834;-65
2021/11/15 00:54:44;;;;;;;70.05;45.03;;;;;;;4.20;78.65;101419.16;1735033;82;20940;-65
2021/11/15 00:57:11;;;;;;;69.37;44.85;;;;;;;4.21;78.62;101421.33;1762798;81;21074;-65
2021/11/15 00:59:38;;;;;;;70.05;46.35;;;;;;;4.20;78.58;101418.31;1734040;81;21006;-65
2021/11/15 01:02:05;;;;;;;68.22;45.38;;;;;;;4.20;78.60;101421.78;1762777;79;20900;-65
2021/11/15 01:04:31;;;;;;;67.50;44.93;;;;;;;4.22;78.63;101421.72;1763098;81;21803;-65
2021/11/15 01:06:58;;;;;;;65.97;44.88;;;;;;;4.22;78.57;101416.48;1760473;81;21000;-65
2021/11/15 01:09:25;;;;;;;66.70;43.80;;;;;;;4.22;78.57;101421.72;1763868;80;20949;-65
2021/11/15 01:11:52;;;;;;;66.35;43.95;;;;;;;4.23;78.54;101419.05;1790514;80;20977;-66
2021/11/15 01:14:20;;;;;;;67.92;44.13;;;;;;;4.26;78.49;101418.10;1795749;80;21522;-65
2021/11/15 01:16:47;;;;;;;74.92;48.00;;;;;;;4.25;78.48;101419.02;1752037;80;21818;-67
2021/11/15 01:19:15;;;;;;;76.33;49.88;;;;;;;4.25;78.50;101413.78;1781851;80;21367;-65
2021/11/15 01:21:42;;;;;;;65.55;46.83;;;;;;;4.25;78.49;101415.94;1787572;80;20972;-65
2021/11/15 01:24:09;;;;;;;71.57;48.05;;;;;;;4.25;78.52;101420.32;1794502;80;21173;-65
2021/11/15 01:26:39;;;;;;;69.10;48.52;;;;;;;4.25;78.53;101417.25;1791970;80;21067;-66
2021/11/15 01:29:06;;;;;;;72.30;45.67;;;;;;;4.26;78.55;101419.41;1787324;79;21824;-65
2021/11/15 01:31:34;;;;;;;66.70;46.13;;;;;;;4.27;78.58;101422.42;1792929;79;21323;-65
2021/11/15 01:34:02;;;;;;;67.12;45.20;;;;;;;4.27;78.56;101417.19;1795551;80;20996;-65
2021/11/15 01:36:29;;;;;;;62.88;43.58;;;;;;;4.27;78.54;101425.03;1786456;80;21000;-65
2021/11/15 01:38:55;;;;;;;67.05;43.25;;;;;;;4.26;78.54;101424.64;1795574;80;20980;-65
2021/11/15 01:41:23;;;;;;;64.42;42.90;;;;;;;4.25;78.60;101416.40;1809502;79;21818;-66
2021/11/15 01:43:51;;;;;;;60.15;41.63;;;;;;;4.27;78.60;101419.80;1770348;80;21497;-65
2021/11/15 01:46:18;;;;;;;68.40;42.88;;;;;;;4.28;78.62;101422.36;1769115;79;20972;-65
2021/11/15 01:48:45;;;;;;;62.90;42.98;;;;;;;4.27;78.58;101416.73;1773002;80;21444;-65
2021/11/15 01:51:11;;;;;;;61.90;41.63;;;;;;;4.27;78.61;101425.03;1789042;80;21482;-65
2021/11/15 01:53:37;;;;;;;60.40;41.73;;;;;;;4.29;78.63;101427.13;1771820;80;22453;-66
2021/11/15 01:56:05;;;;;;;57.73;40.67;;;;;;;4.30;78.64;101423.14;1764253;81;21178;-65
2021/11/15 01:58:31;;;;;;;59.50;41.55;;;;;;;4.30;78.61;101430.14;1780920;80;20981;-65
2021/11/15 02:00:59;;;;;;;57.17;41.05;;;;;;;4.29;78.61;101421.90;1783778;79;21307;-65
2021/11/15 02:03:27;;;;;;;62.60;42.38;;;;;;;4.30;78.63;101426.22;1791725;80;20964;-65
2021/11/15 02:05:54;;;;;;;69.12;42.55;;;;;;;4.29;78.64;101421.45;1795214;80;22540;-65
2021/11/15 02:08:20;;;;;;;66.30;42.00;;;;;;;4.30;78.70;101424.91;1789345;80;20992;-65
2021/11/15 02:10:47;;;;;;;67.70;44.88;;;;;;;4.31;78.72;101434.46;1782277;79;20996;-65
2021/11/15 02:13:17;;;;;;;64.22;43.98;;;;;;;4.29;78.74;101430.59;1735202;81;21075;-65
2021/11/15 02:15:45;;;;;;;73.57;47.90;;;;;;;4.28;78.77;101436.73;1751399;80;21372;-65
2021/11/15 02:18:12;;;;;;;72.87;49.50;;;;;;;4.28;78.81;101428.89;1743031;80;21828;-65
2021/11/15 02:20:52;;;;;;;78.80;51.73;;;;;;;4.28;78.82;101433.27;1765258;80;21006;-65
2021/11/15 02:23:19;;;;;;;80.83;51.37;;;;;;;4.28;78.87;101431.97;1766841;80;20952;-64
2021/11/15 02:25:48;;;;;;;78.92;50.52;;;;;;;4.30;78.91;101439.30;1781430;80;20993;-64
2021/11/15 02:28:14;;;;;;;74.95;49.55;;;;;;;4.31;78.94;101442.31;1766619;80;20959;-65
2021/11/15 02:30:42;;;;;;;78.78;51.80;;;;;;;4.32;78.97;101445.31;1759969;81;21824;-64
2021/11/15 02:33:10;;;;;;;76.77;50.25;;;;;;;4.33;78.97;101454.87;1759988;81;20986;-65
2021/11/15 02:35:37;;;;;;;75.42;49.10;;;;;;;4.31;78.99;101452.31;1746437;80;21102;-66
2021/11/15 02:38:05;;;;;;;74.62;50.15;;;;;;;4.31;79.04;101458.00;1758917;80;21009;-64
2021/11/15 02:40:31;;;;;;;78.97;51.95;;;;;;;4.30;79.08;101466.75;1779142;80;20988;-65
2021/11/15 02:42:57;;;;;;;74.85;50.73;;;;;;;4.28;79.13;101470.73;1780037;80;21792;-65
2021/11/15 02:45:25;;;;;;;79.60;51.75;;;;;;;4.27;79.16;101461.64;1780562;80;21368;-65
2021/11/15 02:47:52;;;;;;;79.15;53.42;;;;;;;4.28;79.21;101479.05;1778150;80;21022;-65
2021/11/15 02:50:21;;;;;;;90.07;54.08;;;;;;;4.28;79.23;101469.43;1775583;80;21458;-65
2021/11/15 02:52:53;;;;;;;81.20;53.45;;;;;;;4.29;79.26;101465.05;1768482;80;20995;-65
2021/11/15 02:55:19;;;;;;;79.10;51.83;;;;;;;4.31;79.26;101462.77;1777812;80;21903;-66
2021/11/15 02:57:46;;;;;;;80.57;52.35;;;;;;;4.34;79.22;101473.57;1768458;80;20936;-65
2021/11/15 03:00:38;;;;;;;78.45;51.05;;;;;;;4.34;79.23;101466.18;1776596;80;20997;-65
2021/11/15 03:03:05;;;;;;;82.65;52.62;;;;;;;4.35;79.22;101458.77;1755258;81;21004;-65
2021/11/15 03:05:34;;;;;;;87.80;52.48;;;;;;;4.38;79.21;101463.87;1763689;80;21044;-65
2021/11/15 03:08:01;;;;;;;79.53;52.03;;;;;;;4.40;79.18;101460.73;1748218;81;21475;-65
2021/11/15 03:10:28;;;;;;;77.50;50.25;;;;;;;4.41;79.17;101467.67;1760929;80;21336;-65
2021/11/15 03:12:56;;;;;;;74.65;49.35;;;;;;;4.41;79.13;101468.98;1760130;81;20947;-65
2021/11/15 03:15:29;;;;;;;72.58;48.75;;;;;;;4.39;79.11;101470.80;1760807;81;21113;-65
2021/11/15 03:18:00;;;;;;;79.27;49.83;;;;;;;4.39;79.05;101473.42;1759830;81;21387;-64
2021/11/15 03:20:30;;;;;;;75.08;51.88;;;;;;;4.38;79.06;101469.10;1741897;81;21788;-64
2021/11/15 03:22:57;;;;;;;66.47;44.03;;;;;;;4.36;79.03;101470.47;1749527;81;21000;-64
2021/11/15 03:25:26;;;;;;;68.20;45.90;;;;;;;4.37;79.03;101481.78;1747463;81;21019;-64
2021/11/15 03:27:54;;;;;;;77.27;47.98;;;;;;;4.35;79.00;101485.77;1741816;81;20997;-64
2021/11/15 03:30:20;;;;;;;74.15;49.55;;;;;;;4.33;78.94;101488.87;1752599;81;21008;-64
2021/11/15 03:32:47;;;;;;;78.00;49.67;;;;;;;4.31;78.93;101486.77;1739990;81;21802;-65
2021/11/15 03:35:14;;;;;;;74.60;47.62;;;;;;;4.30;78.92;101486.38;1749887;81;21046;-65
2021/11/15 03:37:41;;;;;;;72.60;47.85;;;;;;;4.33;78.90;101488.02;1756380;81;21007;-65
2021/11/15 03:40:14;;;;;;;77.65;48.65;;;;;;;4.34;78.84;101485.80;1745668;81;21062;-65
2021/11/15 03:42:43;;;;;;;65.42;44.00;;;;;;;4.34;78.82;101492.34;1728307;83;21017;-65
2021/11/15 03:45:10;;;;;;;69.40;45.55;;;;;;;4.38;78.80;101497.87;1740679;81;21856;-65
2021/11/15 03:47:37;;;;;;;71.62;44.30;;;;;;;4.38;78.72;101506.58;1736976;81;20968;-65
2021/11/15 03:50:05;;;;;;;70.80;44.35;;;;;;;4.37;78.66;101504.02;1733808;81;21003;-65
2021/11/15 03:52:33;;;;;;;67.97;46.25;;;;;;;4.36;78.59;101514.94;1754840;81;21035;-65
2021/11/15 03:54:59;;;;;;;64.53;43.78;;;;;;;4.34;78.55;101506.27;1756330;81;21497;-65
2021/11/15 03:57:26;;;;;;;60.88;39.13;;;;;;;4.38;78.51;101506.58;1753192;81;21818;-65
2021/11/15 03:59:53;;;;;;;63.63;43.00;;;;;;;4.38;78.43;101509.19;1781608;80;20976;-66
2021/11/15 04:02:22;;;;;;;62.03;40.52;;;;;;;4.37;78.36;101502.25;1759120;81;21023;-65
2021/11/15 04:05:01;;;;;;;62.23;40.20;;;;;;;4.36;78.21;101508.39;1763837;81;20956;-64
2021/11/15 04:07:33;;;;;;;61.83;39.10;;;;;;;4.34;78.14;101510.19;1763248;81;20948;-65
2021/11/15 04:09:56;;;;;;;60.50;39.48;;;;;;;4.34;78.04;101519.34;1760878;80;21808;-65
2021/11/15 04:12:23;;;;;;;57.23;38.63;;;;;;;4.34;77.95;101516.73;1774991;80;21019;-65
2021/11/15 04:14:51;;;;;;;58.28;38.63;;;;;;;4.34;77.86;101517.18;1792610;80;21095;-65
2021/11/15 04:17:19;;;;;;;61.55;39.90;;;;;;;4.34;77.83;101511.50;1769228;80;21377;-65
2021/11/15 04:19:47;;;;;;;60.45;39.05;;;;;;;4.35;77.74;101515.84;1779055;80;21020;-65
2021/11/15 04:22:13;;;;;;;61.35;38.55;;;;;;;4.36;77.71;101512.32;1785595;80;21830;-65
2021/11/15 04:24:40;;;;;;;53.23;36.28;;;;;;;4.38;77.67;101514.87;1785268;80;20996;-64
2021/11/15 04:27:08;;;;;;;56.05;37.42;;;;;;;4.40;77.63;101520.91;1775743;80;21368;-65
2021/11/15 04:29:35;;;;;;;59.38;39.10;;;;;;;4.40;77.57;101524.37;1760903;80;20956;-64
2021/11/15 04:32:06;;;;;;;56.88;36.60;;;;;;;4.41;77.54;101524.77;1785619;80;20999;-65
2021/11/15 04:34:34;;;;;;;56.10;37.58;;;;;;;4.43;77.48;101527.32;1763025;80;21836;-65
2021/11/15 04:37:01;;;;;;;57.23;37.33;;;;;;;4.41;77.42;101525.22;1786477;79;21008;-65
2021/11/15 04:39:28;;;;;;;55.67;36.75;;;;;;;4.41;77.34;101529.14;1738207;80;20965;-65
2021/11/15 04:41:54;;;;;;;53.20;35.88;;;;;;;4.42;77.30;101540.00;1764725;80;20996;-66
2021/11/15 04:44:20;;;;;;;57.27;37.20;;;;;;;4.42;77.26;101536.93;1773591;80;21388;-65
2021/11/15 04:46:47;;;;;;;51.75;37.30;;;;;;;4.42;77.23;101537.39;1791056;80;21832;-66
2021/11/15 04:49:13;;;;;;;52.93;35.60;;;;;;;4.41;77.20;101537.84;1778994;80;20939;-65
2021/11/15 04:51:39;;;;;;;54.10;34.80;;;;;;;4.40;77.18;101537.45;1764327;80;21090;-65
2021/11/15 04:54:06;;;;;;;53.50;36.08;;;;;;;4.39;77.17;101546.66;1778105;80;21008;-66
2021/11/15 04:56:33;;;;;;;55.80;36.93;;;;;;;4.38;77.13;101544.50;1790595;80;21012;-66
2021/11/15 04:58:59;;;;;;;53.05;35.20;;;;;;;4.39;77.12;101542.28;1777586;80;21817;-65
2021/11/15 05:01:26;;;;;;;51.88;34.25;;;;;;;4.42;77.12;101546.55;1780837;80;21012;-65
2021/11/15 05:03:53;;;;;;;56.63;35.68;;;;;;;4.45;77.10;101558.23;1788171;79;21048;-65
2021/11/15 05:06:19;;;;;;;56.63;34.98;;;;;;;4.45;77.00;101555.16;1781660;80;21019;-66
2021/11/15 05:08:46;;;;;;;48.42;33.28;;;;;;;4.46;76.96;101558.17;1787085;80;20968;-66
2021/11/15 05:11:13;;;;;;;47.05;33.85;;;;;;;4.49;76.92;101546.28;1787229;79;21827;-67
2021/11/15 05:13:39;;;;;;;46.77;33.42;;;;;;;4.50;76.84;101558.45;1778467;80;21034;-68
2021/11/15 05:16:06;;;;;;;53.15;33.73;;;;;;;4.53;76.76;101561.41;1774754;80;21407;-68
2021/11/15 05:18:32;;;;;;;53.08;33.48;;;;;;;4.53;76.67;101564.02;1779012;80;20999;-67
2021/11/15 05:20:59;;;;;;;51.00;33.13;;;;;;;4.53;76.63;101568.80;1753378;80;21011;-68
2021/11/15 05:23:27;;;;;;;52.13;32.65;;;;;;;4.55;76.61;101574.00;1793242;80;22584;-68
2021/11/15 05:25:56;;;;;;;48.60;31.90;;;;;;;4.59;76.57;101574.28;1783830;80;21415;-67
2021/11/15 05:28:23;;;;;;;46.28;30.65;;;;;;;4.62;76.49;101581.16;1795325;80;21035;-67
2021/11/15 05:30:49;;;;;;;46.63;30.57;;;;;;;4.64;76.33;101576.75;1782049;80;20961;-67
2021/11/15 05:33:16;;;;;;;47.73;30.05;;;;;;;4.65;76.24;101581.92;1781020;79;21416;-66
2021/11/15 05:35:43;;;;;;;42.20;27.52;;;;;;;4.69;76.19;101595.75;1803812;78;21822;-67
2021/11/15 05:38:10;;;;;;;44.35;28.52;;;;;;;4.72;75.99;101598.24;1794981;79;20995;-68
2021/11/15 05:40:37;;;;;;;47.20;29.02;;;;;;;4.74;75.82;101597.76;1791344;79;20949;-67
2021/11/15 05:43:03;;;;;;;45.60;29.00;;;;;;;4.77;75.68;101611.58;1788008;79;21096;-67
2021/11/15 05:45:29;;;;;;;39.20;26.52;;;;;;;4.79;75.48;101607.59;1776294;80;21039;-68
2021/11/15 05:47:58;;;;;;;47.13;29.85;;;;;;;4.81;75.37;101614.93;1750495;80;21845;-68
2021/11/15 05:50:26;;;;;;;47.50;29.98;;;;;;;4.82;75.21;101617.95;1771495;80;21028;-67
2021/11/15 05:52:53;;;;;;;45.73;27.17;;;;;;;4.83;75.14;101624.46;1753169;80;21495;-67
2021/11/15 05:55:22;;;;;;;40.33;26.35;;;;;;;4.85;75.08;101627.88;1769764;80;21375;-67
2021/11/15 05:57:49;;;;;;;43.92;26.82;;;;;;;4.86;74.94;101622.18;1783942;80;21092;-67
2021/11/15 06:00:18;;;;;;;45.60;27.75;;;;;;;4.86;74.81;101628.72;1780620;80;22481;-67
2021/11/15 06:02:45;;;;;;;41.70;27.95;;;;;;;4.86;74.73;101626.95;1792963;80;20944;-67
2021/11/15 06:05:11;;;;;;;41.60;26.97;;;;;;;4.88;74.68;101622.97;1812588;79;21023;-67
2021/11/15 06:07:38;;;;;;;41.05;27.35;;;;;;;4.88;74.52;101631.68;1764587;80;20964;-67
2021/11/15 06:10:07;;;;;;;44.05;27.98;;;;;;;4.88;74.44;101632.98;1778989;80;20945;-67
2021/11/15 06:12:37;;;;;;;39.63;27.48;;;;;;;4.89;74.35;101631.22;1782889;80;21859;-67
2021/11/15 06:15:06;;;;;;;46.98;29.30;;;;;;;4.92;74.34;101632.41;1805692;79;21023;-67
2021/11/15 06:17:32;;;;;;;43.87;29.85;;;;;;;4.95;74.33;101638.88;1759483;80;20988;-67
2021/11/15 06:19:59;;;;;;;44.05;30.60;;;;;;;4.97;74.30;101646.20;1763329;80;20947;-67
2021/11/15 06:22:26;;;;;;;46.53;29.57;;;;;;;4.98;74.20;101643.98;1783371;80;20988;-68
2021/11/15 06:24:53;;;;;;;39.80;27.05;;;;;;;5.03;74.15;101651.69;1764204;81;21782;-67
2021/11/15 06:27:19;;;;;;;38.75;27.50;;;;;;;5.04;74.07;101652.94;1765776;80;21041;-67
2021/11/15 06:29:46;;;;;;;43.08;28.12;;;;;;;5.05;73.99;101655.95;1751993;81;20981;-66
2021/11/15 06:32:13;;;;;;;40.17;27.37;;;;;;;5.08;73.89;101662.38;1774302;80;21055;-67
2021/11/15 06:34:40;;;;;;;41.95;28.60;;;;;;;5.08;73.77;101667.63;1795681;80;21043;-67
2021/11/15 06:37:07;;;;;;;41.83;28.73;;;;;;;5.10;73.59;101661.87;1788836;79;22595;-67
2021/11/15 06:39:35;;;;;;;41.37;28.67;;;;;;;5.10;73.51;101659.25;1800422;79;20925;-67
2021/11/15 06:42:02;;;;;;;40.25;28.52;;;;;;;5.10;73.38;101668.88;1788008;79;21414;-68
2021/11/15 06:44:29;;;;;;;43.42;29.45;;;;;;;5.12;73.40;101668.39;1792509;78;20985;-68
2021/11/15 06:46:55;;;;;;;46.35;31.48;;;;;;;5.14;73.37;101662.17;1800156;78;20941;-67
2021/11/15 06:49:22;;;;;;;45.90;32.90;;;;;;;5.17;73.33;101663.81;1785021;79;21789;-67
2021/11/15 06:51:48;;;;;;;43.73;31.20;;;;;;;5.20;73.28;101672.02;1772973;79;21083;-68
2021/11/15 06:54:15;;;;;;;45.88;30.95;;;;;;;5.23;73.25;101663.61;1770681;80;21008;-69
2021/11/15 06:56:42;;;;;;;48.05;32.85;;;;;;;5.26;73.21;101663.94;1785496;80;21363;-67
2021/11/15 06:59:08;;;;;;;45.08;31.42;;;;;;;5.28;73.11;101669.97;1786749;79;21336;-68
2021/11/15 07:01:38;;;;;;;42.80;29.60;;;;;;;5.30;73.08;101676.00;1783489;80;21826;-68
2021/11/15 07:04:05;;;;;;;41.00;28.00;;;;;;;5.31;73.02;101677.28;1766549;80;21460;-67
2021/11/15 07:06:32;;;;;;;51.30;30.08;;;;;;;5.33;72.90;101674.60;1777390;80;21454;-66
2021/11/15 07:08:58;;;;;;;43.20;29.23;;;;;;;5.35;72.85;101682.80;1764514;80;20941;-67
2021/11/15 07:11:25;;;;;;;42.08;29.25;;;;;;;5.36;72.72;101683.65;1760288;80;20996;-67
2021/11/15 07:13:52;;;;;;;37.93;26.12;;;;;;;5.37;72.57;101680.11;1739626;81;21832;-68
2021/11/15 07:16:19;;;;;;;44.48;29.70;;;;;;;5.39;72.49;101685.69;1736456;81;21200;-68
2021/11/15 07:18:51;;;;;;;43.63;29.25;;;;;;;5.37;72.28;101682.73;1758678;81;20952;-68
2021/11/15 07:21:14;;;;;;;44.77;28.87;;;;;;;5.36;72.19;101684.96;1757816;80;21416;-67
2021/11/15 07:23:40;;;;;;;40.15;28.05;;;;;;;5.36;72.16;101684.50;1732743;81;21062;-68
2021/11/15 07:26:07;;;;;;;38.20;27.52;;;;;;;5.36;72.03;101701.53;1731607;83;21790;-68
2021/11/15 07:28:34;;;;;;;43.42;29.77;;;;;;;5.37;71.97;101697.14;1731517;83;20984;-68
2021/11/15 07:31:00;;;;;;;43.08;29.42;;;;;;;5.36;71.95;101696.75;1731563;83;21050;-68
2021/11/15 07:33:27;;;;;;;40.55;28.62;;;;;;;5.38;71.97;101704.09;1737806;81;21498;-68
2021/11/15 07:35:54;;;;;;;43.75;29.37;;;;;;;5.40;71.96;101703.57;1761790;81;21007;-68
2021/11/15 07:38:20;;;;;;;44.63;28.75;;;;;;;5.42;71.95;101703.94;1761763;81;21790;-69
2021/11/15 07:40:47;;;;;;;43.68;29.18;;;;;;;5.44;71.89;101703.42;1755206;81;21025;-68
2021/11/15 07:43:20;;;;;;;42.08;28.85;;;;;;;5.46;71.87;101709.45;1726620;83;21068;-69
2021/11/15 07:45:48;;;;;;;43.17;30.92;;;;;;;5.50;71.81;101709.33;1774375;78;20945;-68
2021/11/15 07:48:15;;;;;;;44.00;29.60;;;;;;;5.52;71.71;101721.95;1781058;80;21435;-68
2021/11/15 07:50:42;;;;;;;41.02;28.57;;;;;;;5.53;71.73;101720.58;1752181;81;22172;-69
2021/11/15 07:53:08;;;;;;;40.75;28.77;;;;;;;5.55;71.59;101719.20;1753126;81;20945;-68
2021/11/15 07:55:35;;;;;;;37.78;28.10;;;;;;;5.54;71.37;101724.05;1749952;82;20970;-69
2021/11/15 07:58:04;;;;;;;44.15;30.82;;;;;;;5.55;71.19;101728.37;1741811;81;20992;-70
2021/11/15 08:00:31;;;;;;;38.83;29.67;;;;;;;5.52;71.00;101731.97;1728610;83;21072;-69
2021/11/15 08:02:58;;;;;;;46.30;31.00;;;;;;;5.53;71.00;101731.05;1728468;83;21834;-68
2021/11/15 08:05:24;;;;;;;42.60;29.95;;;;;;;5.54;70.78;101739.31;1728602;83;20944;-69
2021/11/15 08:07:54;;;;;;;40.43;29.15;;;;;;;5.55;70.74;101753.27;1710039;82;34564;-69
2021/11/15 08:10:22;;;;;;;37.95;27.98;;;;;;;5.54;70.52;101745.02;1731535;83;21081;-68
2021/11/15 08:12:53;;;;;;;39.78;28.50;;;;;;;5.56;70.61;101756.29;1759892;80;21407;-69
2021/11/15 08:15:21;;;;;;;39.60;28.70;;;;;;;5.59;70.66;101748.30;1777305;80;21837;-68
2021/11/15 08:17:53;;;;;;;41.40;28.98;;;;;;;5.62;70.60;101749.06;1792457;80;20988;-68
2021/11/15 08:20:27;;;;;;;38.95;27.22;;;;;;;5.66;70.51;101747.17;1788674;79;21055;-69
2021/11/15 08:23:00;;;;;;;36.55;27.45;;;;;;;5.67;70.39;101751.05;1793085;80;20985;-68
2021/11/15 08:25:57;;;;;;;38.65;26.85;;;;;;;5.69;70.31;101762.35;1766069;80;20960;-68
2021/11/15 08:28:28;;;;;;;35.58;24.02;;;;;;;5.69;70.13;101750.55;1792634;79;21824;-69
2021/11/15 08:30:55;;;;;;;37.42;25.50;;;;;;;5.70;70.16;101750.10;1787114;80;20988;-69
2021/11/15 08:33:22;;;;;;;38.20;26.80;;;;;;;5.73;70.07;101760.46;1761217;81;21008;-68
2021/11/15 08:35:48;;;;;;;37.33;24.85;;;;;;;5.76;70.05;101766.89;1761409;81;21001;-70
2021/11/15 08:38:23;;;;;;;38.35;27.07;;;;;;;5.81;69.90;101768.05;1761457;80;21007;-68
2021/11/15 08:40:51;;;;;;;36.98;26.85;;;;;;;5.82;69.80;101770.61;1761511;81;21824;-68
2021/11/15 08:43:20;;;;;;;35.43;26.12;;;;;;;5.86;69.57;101770.02;1762278;80;21007;-68
2021/11/15 08:45:47;;;;;;;38.05;26.60;;;;;;;5.89;69.42;101773.41;1761180;81;20996;-68
2021/11/15 08:48:14;;;;;;;35.33;25.12;;;;;;;5.93;69.36;101772.86;1761320;80;21055;-68
2021/11/15 08:50:40;;;;;;;34.75;25.00;;;;;;;5.99;69.37;101775.26;1740111;80;21063;-68
2021/11/15 08:53:07;;;;;;;34.30;24.07;;;;;;;6.03;68.95;101774.22;1778156;80;21825;-67
2021/11/15 08:55:36;;;;;;;35.88;25.05;;;;;;;6.08;68.74;101765.73;1782906;79;21083;-69
2021/11/15 08:58:03;;;;;;;35.17;24.30;;;;;;;6.11;68.34;101768.22;1747238;80;20973;-68
2021/11/15 09:00:30;;;;;;;31.20;22.93;;;;;;;6.17;68.22;101769.28;1761163;81;21046;-67
2021/11/15 09:02:56;;;;;;;36.15;22.42;;;;;;;6.27;68.13;101771.09;1761122;81;21000;-67
2021/11/15 09:05:23;;;;;;;31.52;23.00;;;;;;;6.35;67.74;101771.64;1761250;81;21444;-67
2021/11/15 09:07:51;;;;;;;31.82;22.20;;;;;;;6.43;66.82;101775.28;1761316;81;21498;-66
2021/11/15 09:10:18;;;;;;;34.23;23.30;;;;;;;6.41;65.90;101775.34;1761205;81;20964;-66
2021/11/15 09:12:46;;;;;;;29.67;20.75;;;;;;;6.43;66.02;101772.66;1755463;81;20961;-66
2021/11/15 09:15:14;;;;;;;28.73;21.17;;;;;;;6.56;65.85;101777.38;1753980;80;20996;-66
2021/11/15 09:17:44;;;;;;;31.80;22.10;;;;;;;6.68;65.42;101779.10;1783021;80;21936;-68
2021/11/15 09:20:11;;;;;;;29.37;21.40;;;;;;;6.82;65.40;101772.81;1731182;81;21502;-65
2021/11/15 09:22:38;;;;;;;31.23;22.60;;;;;;;6.99;65.20;101773.42;1759953;81;21409;-66
2021/11/15 09:25:05;;;;;;;34.38;21.42;;;;;;;7.13;64.83;101771.05;1759893;81;21477;-66
2021/11/15 09:27:32;;;;;;;27.37;20.65;;;;;;;7.29;64.47;101773.42;1760184;81;21513;-66
2021/11/15 09:29:59;;;;;;;35.38;21.50;;;;;;;7.43;64.04;101771.06;1759776;81;21829;-67
2021/11/15 09:32:26;;;;;;;32.25;21.77;;;;;;;7.56;62.94;101770.52;1760788;80;20992;-66
2021/11/15 09:34:53;;;;;;;30.65;21.05;;;;;;;7.67;62.85;101765.63;1759933;80;20971;-66
2021/11/15 09:37:20;;;;;;;28.20;20.72;;;;;;;7.82;62.44;101774.15;1759790;81;21517;-66
2021/11/15 09:39:48;;;;;;;27.27;20.00;;;;;;;7.95;61.94;101768.70;1760158;81;20947;-66
2021/11/15 09:42:15;;;;;;;26.77;19.67;;;;;;;8.06;61.20;101773.92;1759839;81;21793;-66
2021/11/15 09:44:43;;;;;;;27.15;18.77;;;;;;;8.17;60.06;101769.86;1759959;81;21042;-66
2021/11/15 09:47:09;;;;;;;26.70;18.57;;;;;;;8.23;59.92;101768.73;1759827;81;20951;-66
2021/11/15 09:49:36;;;;;;;24.70;17.85;;;;;;;8.35;59.38;101773.91;1760767;80;20975;-67
2021/11/15 09:52:05;;;;;;;27.35;19.12;;;;;;;8.42;58.99;101770.91;1760131;81;21447;-66
2021/11/15 09:54:32;;;;;;;24.67;16.65;;;;;;;8.56;58.61;101769.77;1790022;80;21813;-66
2021/11/15 09:56:58;;;;;;;21.82;15.55;;;;;;;8.69;57.69;101775.77;1759077;81;20958;-66
2021/11/15 09:59:28;;;;;;;21.02;14.65;;;;;;;8.79;56.97;101779.19;1755202;80;21095;-66
2021/11/15 10:01:53;;;;;;;19.75;14.05;;;;;;;8.87;56.19;101787.54;1751835;81;21044;-67
2021/11/15 10:04:19;;;;;;;19.77;14.87;;;;;;;8.99;56.46;101788.73;1752139;82;20996;-67
2021/11/15 10:06:47;;;;;;;18.55;13.80;;;;;;;9.13;55.73;101790.66;1760969;80;21811;-66
2021/11/15 10:09:13;;;;;;;18.95;13.78;;;;;;;9.25;55.46;101790.02;1759899;81;21071;-67
2021/11/15 10:11:44;;;;;;;19.32;14.33;;;;;;;9.34;54.95;101786.06;1760101;81;21027;-68
2021/11/15 10:14:12;;;;;;;20.27;14.60;;;;;;;9.42;53.97;101787.84;1764029;81;21039;-67
2021/11/15 10:16:40;;;;;;;21.85;13.93;;;;;;;9.42;53.65;101791.33;1763993;81;20984;-67
2021/11/15 10:19:09;;;;;;;20.62;14.80;;;;;;;9.52;53.90;101785.11;1764218;80;22638;-67
2021/11/15 10:21:42;;;;;;;17.92;13.95;;;;;;;9.56;53.04;101787.14;1764109;81;20933;-67
2021/11/15 10:24:15;;;;;;;20.20;14.28;;;;;;;9.53;52.20;101783.33;1777347;80;20956;-67
2021/11/15 10:26:51;;;;;;;21.12;13.43;;;;;;;9.40;52.00;101790.56;1795509;80;20960;-67
2021/11/15 10:29:26;;;;;;;17.37;12.35;;;;;;;9.34;52.29;101793.98;1795266;80;20992;-67
2021/11/15 10:32:02;;;;;;;16.73;11.35;;;;;;;9.30;52.32;101791.98;1795441;80;21835;-67
2021/11/15 10:34:49;;;;;;;18.55;11.88;;;;;;;9.27;52.19;101799.20;1795483;80;20944;-67
2021/11/15 10:37:27;;;;;;;18.10;11.55;;;;;;;9.44;52.82;101795.20;1795449;80;20987;-67
2021/11/15 10:40:06;;;;;;;16.90;10.78;;;;;;;9.63;52.38;101797.73;1795492;80;21414;-67
2021/11/15 10:42:38;;;;;;;17.23;11.08;;;;;;;9.72;52.00;101790.18;1795453;80;21570;-67
2021/11/15 10:45:08;;;;;;;17.02;12.03;;;;;;;9.78;50.94;101798.72;1795614;80;21811;-67
2021/11/15 10:47:52;;;;;;;15.53;11.25;;;;;;;9.78;50.62;101792.98;1795333;80;20940;-67
2021/11/15 10:50:42;;;;;;;19.45;11.45;;;;;;;9.79;51.05;101791.19;1795962;80;20960;-67
2021/11/15 10:53:21;;;;;;;18.27;11.70;;;;;;;9.87;51.50;101790.31;1793477;80;21058;-67
2021/11/15 10:56:17;;;;;;;16.00;11.63;;;;;;;10.08;51.50;101791.78;1795200;80;20948;-66
2021/11/15 10:58:45;;;;;;;15.53;11.35;;;;;;;10.28;51.54;101796.00;1784454;80;21859;-66
2021/11/15 11:01:12;;;;;;;16.25;11.65;;;;;;;10.51;50.71;101799.98;1795605;80;21406;-66
2021/11/15 11:03:39;;;;;;;14.38;10.60;;;;;;;10.62;50.25;101800.72;1786025;80;20948;-66
2021/11/15 11:06:11;;;;;;;19.52;11.70;;;;;;;10.73;50.25;101806.24;1763989;81;21293;-66
2021/11/15 11:08:46;;;;;;;16.85;13.35;;;;;;;10.87;49.52;101815.53;1763874;81;20980;-67
2021/11/15 11:11:27;;;;;;;16.97;11.63;;;;;;;10.92;49.52;101804.72;1764092;81;21486;-68
2021/11/15 11:14:00;;;;;;;17.15;11.80;;;;;;;11.07;50.02;101809.09;1764051;81;20948;-66
2021/11/15 11:16:52;;;;;;;18.73;12.30;;;;;;;11.18;49.25;101805.34;1763949;81;21004;-65
2021/11/15 11:22:12;;;;;;;15.00;11.85;;;;;;;11.45;48.16;101808.98;1764023;80;20952;-67
2021/11/15 11:27:13;;;;;;;16.52;11.83;;;;;;;11.55;47.94;101815.05;1764051;81;20942;-66